createdAt,value
2024-03-26T00:00:07.506Z,99772.02
2024-03-26T00:02:34.852Z,99768.35
2024-03-26T00:05:01.833Z,99770.88
2024-03-26T00:07:28.757Z,99766.89
2024-03-26T00:09:55.772Z,99767.94
2024-03-26T00:12:22.816Z,99767.06
2024-03-26T00:14:49.619Z,99764.11
2024-03-26T00:17:16.607Z,99763.75
2024-03-26T00:19:43.742Z,99761.52
2024-03-26T00:22:10.840Z,99760.09
2024-03-26T00:24:37.709Z,99758.11
2024-03-26T00:27:04.576Z,99757.58
2024-03-26T00:29:31.412Z,99759.38
2024-03-26T00:31:58.307Z,99757.77
2024-03-26T00:34:25.358Z,99761.61
2024-03-26T00:36:52.343Z,99760.79
2024-03-26T00:39:19.393Z,99760.55
2024-03-26T00:41:46.489Z,99758.80
2024-03-26T00:44:13.392Z,99762.08
2024-03-26T00:46:40.386Z,99761.77
2024-03-26T00:49:07.259Z,99760.75
2024-03-26T00:51:34.999Z,99763.55
2024-03-26T00:54:01.871Z,99762.23
2024-03-26T00:56:29.034Z,99767.80
2024-03-26T00:58:56.206Z,99767.05
2024-03-26T01:01:23.223Z,99769.38
2024-03-26T01:03:52.299Z,99771.05
2024-03-26T01:06:19.331Z,99768.04
2024-03-26T01:08:46.240Z,99767.94
2024-03-26T01:11:13.796Z,99768.35
2024-03-26T01:13:41.217Z,99773.02
2024-03-26T01:16:08.408Z,99775.45
2024-03-26T01:18:36.405Z,99779.42
2024-03-26T01:21:03.845Z,99781.36
2024-03-26T01:23:30.887Z,99780.91
2024-03-26T01:25:57.846Z,99785.43
2024-03-26T01:28:24.779Z,99790.10
2024-03-26T01:30:51.784Z,99791.04
2024-03-26T01:33:18.626Z,99796.30
2024-03-26T01:35:53.049Z,99794.30
2024-03-26T01:38:19.926Z,99801.32
2024-03-26T01:40:47.022Z,99799.52
2024-03-26T01:43:14.014Z,99796.16
2024-03-26T01:45:41.324Z,99798.06
2024-03-26T01:48:09.893Z,99796.70
2024-03-26T01:50:37.605Z,99797.22
2024-03-26T01:53:05.525Z,99795.83
2024-03-26T01:55:34.396Z,99798.23
2024-03-26T01:58:02.950Z,99797.52
2024-03-26T02:00:30.791Z,99801.34
2024-03-26T02:02:58.141Z,99803.59
2024-03-26T02:05:25.279Z,99806.55
2024-03-26T02:07:52.373Z,99805.40
2024-03-26T02:10:20.117Z,99805.95
2024-03-26T02:12:47.054Z,99812.13
2024-03-26T02:15:13.996Z,99811.42
2024-03-26T02:17:40.883Z,99813.80
2024-03-26T02:20:08.766Z,99813.60
2024-03-26T02:22:35.755Z,99813.25
2024-03-26T02:25:02.715Z,99811.34
2024-03-26T02:27:29.670Z,99812.00
2024-03-26T02:29:56.601Z,99813.02
2024-03-26T02:32:23.567Z,99813.52
2024-03-26T02:34:51.299Z,99811.13
2024-03-26T02:37:18.454Z,99813.04
2024-03-26T02:39:45.422Z,99809.63
2024-03-26T02:42:12.929Z,99814.46
2024-03-26T02:44:39.779Z,99817.40
2024-03-26T02:47:06.792Z,99819.25
2024-03-26T02:49:33.685Z,99821.31
2024-03-26T02:52:00.753Z,99822.33
2024-03-26T02:54:27.782Z,99825.05
2024-03-26T02:56:55.028Z,99829.17
2024-03-26T02:59:21.951Z,99829.52
2024-03-26T03:01:48.795Z,99834.33
2024-03-26T03:04:15.792Z,99831.21
2024-03-26T03:06:42.657Z,99835.51
2024-03-26T03:09:12.856Z,99835.17
2024-03-26T03:11:40.126Z,99839.83
2024-03-26T03:14:07.236Z,99842.45
2024-03-26T03:16:34.100Z,99840.40
2024-03-26T03:19:01.258Z,99840.05
2024-03-26T03:21:28.378Z,99835.91
2024-03-26T03:23:55.393Z,99836.57
2024-03-26T03:26:22.395Z,99840.50
2024-03-26T03:28:49.345Z,99837.21
2024-03-26T03:31:16.270Z,99833.57
2024-03-26T03:33:43.213Z,99838.54
2024-03-26T03:36:10.123Z,99844.73
2024-03-26T03:38:37.163Z,99848.26
2024-03-26T03:41:03.972Z,99844.28
2024-03-26T03:43:30.787Z,99841.96
2024-03-26T03:45:57.886Z,99840.14
2024-03-26T03:48:24.974Z,99839.99
2024-03-26T03:50:51.777Z,99837.77
2024-03-26T03:53:18.780Z,99835.36
2024-03-26T03:55:45.669Z,99836.20
2024-03-26T03:58:12.548Z,99832.09
2024-03-26T04:00:39.434Z,99832.98
2024-03-26T04:03:06.563Z,99839.89
2024-03-26T04:05:37.834Z,99840.81
2024-03-26T04:08:05.423Z,99838.64
2024-03-26T04:10:32.347Z,99842.98
2024-03-26T04:12:59.144Z,99847.20
2024-03-26T04:15:26.096Z,99847.42
2024-03-26T04:17:53.297Z,99848.27
2024-03-26T04:20:20.200Z,99846.05
2024-03-26T04:22:49.901Z,99845.86
2024-03-26T04:25:16.883Z,99848.92
2024-03-26T04:27:43.671Z,99857.46
2024-03-26T04:30:10.986Z,99857.28
2024-03-26T04:32:38.402Z,99857.26
2024-03-26T04:35:05.538Z,99860.67
2024-03-26T04:37:32.411Z,99857.75
2024-03-26T04:39:59.276Z,99859.44
2024-03-26T04:42:26.316Z,99856.66
2024-03-26T04:44:53.327Z,99853.17
2024-03-26T04:47:20.425Z,99850.71
2024-03-26T04:49:47.375Z,99850.13
2024-03-26T04:52:14.294Z,99848.81
2024-03-26T04:54:41.298Z,99848.92
2024-03-26T04:57:08.257Z,99845.04
2024-03-26T04:59:35.232Z,99843.93
2024-03-26T05:02:02.109Z,99842.02
2024-03-26T05:04:28.985Z,99839.72
2024-03-26T05:06:55.934Z,99838.40
2024-03-26T05:09:22.962Z,99840.33
2024-03-26T05:11:50.256Z,99843.08
2024-03-26T05:14:17.125Z,99843.58
2024-03-26T05:16:43.994Z,99842.67
2024-03-26T05:19:11.225Z,99848.49
2024-03-26T05:21:38.084Z,99853.27
2024-03-26T05:24:05.267Z,99854.59
2024-03-26T05:26:32.300Z,99850.91
2024-03-26T05:28:59.184Z,99854.95
2024-03-26T05:31:26.413Z,99859.02
2024-03-26T05:33:53.564Z,99858.96
2024-03-26T05:36:20.535Z,99857.89
2024-03-26T05:38:47.565Z,99858.15
2024-03-26T05:41:14.547Z,99857.02
2024-03-26T05:43:41.365Z,99857.95
2024-03-26T05:46:08.263Z,99855.44
2024-03-26T05:48:35.355Z,99856.89
2024-03-26T05:51:02.350Z,99857.80
2024-03-26T05:53:29.150Z,99858.21
2024-03-26T05:55:56.188Z,99856.92
2024-03-26T05:58:23.345Z,99854.92
2024-03-26T06:00:50.513Z,99856.55
2024-03-26T06:03:17.438Z,99855.80
2024-03-26T06:05:44.400Z,99858.33
2024-03-26T06:08:11.348Z,99858.61
2024-03-26T06:10:38.300Z,99860.50
2024-03-26T06:13:07.611Z,99862.21
2024-03-26T06:15:34.652Z,99869.22
2024-03-26T06:18:01.557Z,99869.45
2024-03-26T06:20:28.495Z,99872.71
2024-03-26T06:22:55.439Z,99874.75
2024-03-26T06:25:22.699Z,99875.89
2024-03-26T06:27:49.625Z,99877.37
2024-03-26T06:30:16.594Z,99875.89
2024-03-26T06:32:43.673Z,99877.59
2024-03-26T06:35:10.552Z,99876.59
2024-03-26T06:37:37.470Z,99875.23
2024-03-26T06:40:04.957Z,99877.12
2024-03-26T06:42:31.879Z,99875.52
2024-03-26T06:44:58.804Z,99879.47
2024-03-26T06:47:25.904Z,99873.99
2024-03-26T06:49:52.884Z,99876.23
2024-03-26T06:52:19.726Z,99871.85
2024-03-26T06:54:46.821Z,99881.84
2024-03-26T06:57:13.621Z,99879.23
2024-03-26T06:59:40.612Z,99879.11
2024-03-26T07:02:09.220Z,99881.11
2024-03-26T07:04:36.140Z,99879.67
2024-03-26T07:07:03.201Z,99877.59
2024-03-26T07:09:31.631Z,99878.58
2024-03-26T07:11:58.448Z,99878.22
2024-03-26T07:14:25.513Z,99881.98
2024-03-26T07:16:52.488Z,99884.16
2024-03-26T07:19:19.349Z,99883.78
2024-03-26T07:21:46.280Z,99884.90
2024-03-26T07:24:13.229Z,99887.59
2024-03-26T07:26:40.178Z,99885.41
2024-03-26T07:29:07.195Z,99884.14
2024-03-26T07:31:34.096Z,99884.76
2024-03-26T07:34:00.989Z,99883.08
2024-03-26T07:36:28.183Z,99884.82
2024-03-26T07:38:55.312Z,99882.25
2024-03-26T07:41:23.577Z,99880.99
2024-03-26T07:43:50.698Z,99878.89
2024-03-26T07:46:17.644Z,99879.95
2024-03-26T07:48:47.462Z,99882.88
2024-03-26T07:51:14.666Z,99877.95
2024-03-26T07:53:41.582Z,99877.55
2024-03-26T07:56:08.477Z,99877.71
2024-03-26T07:58:35.495Z,99874.63
2024-03-26T08:01:03.866Z,99878.42
2024-03-26T08:03:30.887Z,99876.60
2024-03-26T08:05:57.843Z,99882.05
2024-03-26T08:08:25.505Z,99878.20
2024-03-26T08:10:52.488Z,99877.45
2024-03-26T08:13:19.397Z,99881.85
2024-03-26T08:15:46.764Z,99889.45
2024-03-26T08:18:13.800Z,99885.66
2024-03-26T08:20:44.550Z,99889.14
2024-03-26T08:23:11.580Z,99889.23
2024-03-26T08:25:39.612Z,99887.89
2024-03-26T08:28:06.823Z,99882.76
2024-03-26T08:30:33.932Z,99881.00
2024-03-26T08:33:01.248Z,99881.08
2024-03-26T08:35:28.333Z,99882.39
2024-03-26T08:37:55.588Z,99880.37
2024-03-26T08:40:23.845Z,99878.36
2024-03-26T08:42:50.733Z,99887.56
2024-03-26T08:45:17.634Z,99890.02
2024-03-26T08:47:44.765Z,99891.77
2024-03-26T08:50:11.621Z,99887.16
2024-03-26T08:52:38.505Z,99885.19
2024-03-26T08:55:05.700Z,99887.41
2024-03-26T08:57:32.686Z,99889.29
2024-03-26T08:59:59.634Z,99889.48
2024-03-26T09:02:26.539Z,99889.08
2024-03-26T09:04:53.730Z,99892.08
2024-03-26T09:07:20.632Z,99890.19
2024-03-26T09:09:47.616Z,99885.92
2024-03-26T09:12:14.438Z,99888.88
2024-03-26T09:14:41.416Z,99890.95
2024-03-26T09:17:08.414Z,99891.87
2024-03-26T09:19:35.324Z,99888.21
2024-03-26T09:22:02.273Z,99889.71
2024-03-26T09:24:36.432Z,99886.55
2024-03-26T09:27:11.008Z,99886.33
2024-03-26T09:29:38.021Z,99886.11
2024-03-26T09:32:05.378Z,99883.12
2024-03-26T09:34:32.297Z,99884.23
2024-03-26T09:37:00.090Z,99883.70
2024-03-26T09:39:27.011Z,99873.63
2024-03-26T09:41:58.201Z,99879.87
2024-03-26T09:44:30.123Z,99870.94
2024-03-26T09:47:02.486Z,99883.42
2024-03-26T09:49:29.784Z,99868.57
2024-03-26T09:51:59.742Z,99863.20
2024-03-26T09:54:27.910Z,99869.48
2024-03-26T09:56:55.832Z,99868.40
2024-03-26T09:59:22.895Z,99854.80
2024-03-26T10:01:51.334Z,99854.58
2024-03-26T10:04:18.595Z,99850.55
2024-03-26T10:06:45.939Z,99850.77
2024-03-26T10:09:12.988Z,99852.17
2024-03-26T10:11:42.733Z,99853.53
2024-03-26T10:14:10.121Z,99858.42
2024-03-26T10:16:41.409Z,99859.23
2024-03-26T10:19:08.370Z,99852.88
2024-03-26T10:21:35.495Z,99855.27
2024-03-26T10:24:02.946Z,99856.18
2024-03-26T10:26:29.847Z,99853.91
2024-03-26T10:28:56.760Z,99856.54
2024-03-26T10:31:24.584Z,99858.66
2024-03-26T10:33:51.496Z,99851.95
2024-03-26T10:36:20.468Z,99846.79
2024-03-26T10:38:57.044Z,99847.77
2024-03-26T10:41:34.038Z,99847.55
2024-03-26T10:44:02.471Z,99837.77
2024-03-26T10:46:31.201Z,99837.89
2024-03-26T10:49:08.462Z,99843.13
2024-03-26T10:51:37.300Z,99841.98
2024-03-26T10:54:04.845Z,99838.88
2024-03-26T10:56:33.557Z,99836.25
2024-03-26T10:59:00.959Z,99826.11
2024-03-26T11:01:30.181Z,99819.85
2024-03-26T11:03:58.992Z,99830.73
2024-03-26T11:06:29.029Z,99825.05
2024-03-26T11:09:03.081Z,99832.80
2024-03-26T11:11:35.283Z,99827.08
2024-03-26T11:14:05.061Z,99824.70
2024-03-26T11:16:41.442Z,99829.36
2024-03-26T11:19:17.369Z,99821.41
2024-03-26T11:25:22.284Z,99816.05
2024-03-26T11:27:50.681Z,99812.40
2024-03-26T11:30:17.795Z,99802.27
2024-03-26T11:32:45.207Z,99803.58
2024-03-26T11:35:21.916Z,99808.72
2024-03-26T11:37:50.302Z,99800.77
2024-03-26T11:40:18.111Z,99802.64
2024-03-26T11:42:46.530Z,99792.84
2024-03-26T11:45:14.633Z,99787.02
2024-03-26T11:47:42.502Z,99784.67
2024-03-26T11:50:10.082Z,99779.41
2024-03-26T11:52:38.377Z,99769.84
2024-03-26T11:55:09.581Z,99772.73
2024-03-26T11:57:36.927Z,99771.45
2024-03-26T12:00:07.261Z,99760.34
2024-03-26T12:02:36.323Z,99756.88
2024-03-26T12:05:04.498Z,99752.97
2024-03-26T12:07:33.777Z,99746.51
2024-03-26T12:10:00.972Z,99749.58
2024-03-26T12:12:28.064Z,99760.81
2024-03-26T12:14:56.558Z,99755.77
2024-03-26T12:17:23.558Z,99757.21
2024-03-26T12:19:50.832Z,99758.48
2024-03-26T12:22:20.102Z,99746.27
2024-03-26T12:24:47.403Z,99749.40
2024-03-26T12:27:14.811Z,99748.62
2024-03-26T12:29:42.195Z,99738.61
2024-03-26T12:32:09.518Z,99742.05
2024-03-26T12:34:36.627Z,99743.33
2024-03-26T12:37:04.026Z,99749.14
2024-03-26T12:39:31.876Z,99738.41
2024-03-26T12:41:58.722Z,99741.20
2024-03-26T12:44:28.160Z,99736.43
2024-03-26T12:46:55.095Z,99729.19
2024-03-26T12:49:22.253Z,99721.99
2024-03-26T12:51:56.049Z,99725.30
2024-03-26T12:54:23.622Z,99724.55
2024-03-26T12:56:52.878Z,99716.75
2024-03-26T12:59:19.726Z,99712.95
2024-03-26T13:01:52.449Z,99710.01
2024-03-26T13:04:20.943Z,99713.16
2024-03-26T13:06:47.856Z,99711.40
2024-03-26T13:09:14.806Z,99705.25
2024-03-26T13:11:41.977Z,99710.00
2024-03-26T13:14:08.901Z,99714.25
2024-03-26T13:16:35.947Z,99707.75
2024-03-26T13:19:02.887Z,99717.53
2024-03-26T13:21:30.134Z,99720.08
2024-03-26T13:23:56.989Z,99706.91
2024-03-26T13:26:25.150Z,99695.35
2024-03-26T13:28:52.510Z,99694.23
2024-03-26T13:31:19.536Z,99697.17
2024-03-26T13:33:46.526Z,99698.00
2024-03-26T13:36:14.390Z,99709.00
2024-03-26T13:38:43.072Z,99707.61
2024-03-26T13:41:10.923Z,99704.09
2024-03-26T13:43:37.847Z,99697.02
2024-03-26T13:46:04.666Z,99687.92
2024-03-26T13:48:31.587Z,99682.17
2024-03-26T13:50:58.654Z,99673.54
2024-03-26T13:53:25.636Z,99676.63
2024-03-26T13:55:52.474Z,99684.84
2024-03-26T13:58:19.410Z,99678.14
2024-03-26T14:00:47.394Z,99674.39
2024-03-26T14:03:14.505Z,99667.30
2024-03-26T14:05:41.631Z,99668.13
2024-03-26T14:08:08.567Z,99657.48
2024-03-26T14:10:35.633Z,99645.70
2024-03-26T14:13:02.475Z,99645.17
2024-03-26T14:15:29.427Z,99634.67
2024-03-26T14:17:56.305Z,99644.56
2024-03-26T14:20:24.007Z,99638.91
2024-03-26T14:22:51.501Z,99640.21
2024-03-26T14:25:18.953Z,99621.46
2024-03-26T14:27:46.378Z,99626.41
2024-03-26T14:30:14.946Z,99617.73
2024-03-26T14:32:43.056Z,99620.54
2024-03-26T14:35:12.412Z,99618.47
2024-03-26T14:37:40.166Z,99613.76
2024-03-26T14:40:10.721Z,99607.65
2024-03-26T14:42:37.601Z,99611.29
2024-03-26T14:45:06.245Z,99599.73
2024-03-26T14:47:34.089Z,99609.92
2024-03-26T14:50:00.938Z,99595.08
2024-03-26T14:52:27.885Z,99588.29
2024-03-26T14:54:54.843Z,99581.91
2024-03-26T14:57:21.662Z,99588.09
2024-03-26T14:59:48.633Z,99573.80
2024-03-26T15:02:15.640Z,99584.55
2024-03-26T15:04:42.564Z,99578.02
2024-03-26T15:07:09.968Z,99566.20
2024-03-26T15:09:37.687Z,99568.73
2024-03-26T15:12:05.012Z,99544.52
2024-03-26T15:14:32.906Z,99550.96
2024-03-26T15:17:00.114Z,99548.30
2024-03-26T15:19:27.067Z,99548.24
2024-03-26T15:21:54.368Z,99536.27
2024-03-26T15:24:21.405Z,99523.93
2024-03-26T15:27:08.800Z,99522.95
2024-03-26T15:29:57.414Z,99528.52
2024-03-26T15:32:26.151Z,99519.65
2024-03-26T15:34:53.422Z,99515.14
2024-03-26T15:37:20.544Z,99523.16
2024-03-26T15:39:47.750Z,99510.02
2024-03-26T15:42:14.772Z,99511.05
2024-03-26T15:44:41.895Z,99506.08
2024-03-26T15:47:08.799Z,99502.44
2024-03-26T15:49:36.324Z,99495.02
2024-03-26T15:52:04.386Z,99493.83
2024-03-26T15:54:31.449Z,99492.45
2024-03-26T15:56:58.441Z,99487.14
2024-03-26T15:59:25.468Z,99498.61
2024-03-26T16:01:52.331Z,99488.60
2024-03-26T16:04:19.268Z,99483.77
2024-03-26T16:06:46.495Z,99474.80
2024-03-26T16:09:13.536Z,99483.66
2024-03-26T16:11:40.628Z,99486.94
2024-03-26T16:14:07.479Z,99471.48
2024-03-26T16:16:34.351Z,99471.65
2024-03-26T16:19:01.593Z,99470.66
2024-03-26T16:21:28.589Z,99468.91
2024-03-26T17:59:42.586Z,99475.59
2024-03-26T18:02:12.425Z,99472.63
2024-03-26T18:04:40.723Z,99464.57
2024-03-26T18:07:08.877Z,99467.10
2024-03-26T18:09:41.656Z,99463.98
2024-03-26T18:12:10.475Z,99466.46
2024-03-26T18:14:38.695Z,99465.41
2024-03-26T18:17:06.778Z,99460.14
2024-03-26T18:19:34.907Z,99458.46
2024-03-26T18:22:02.960Z,99455.99
2024-03-26T18:24:30.926Z,99455.58
2024-03-26T18:26:58.948Z,99456.52
2024-03-26T18:29:26.887Z,99451.75
2024-03-26T18:31:54.972Z,99449.05
2024-03-26T18:34:23.032Z,99450.73
2024-03-26T18:36:51.062Z,99450.19
2024-03-26T18:39:24.459Z,99450.59
2024-03-26T18:41:52.793Z,99444.33
2024-03-26T18:44:21.472Z,99444.68
2024-03-26T18:46:50.054Z,99443.00
2024-03-26T18:49:17.972Z,99444.20
2024-03-26T18:51:45.982Z,99451.11
2024-03-26T18:54:14.223Z,99445.61
2024-03-26T18:56:42.211Z,99443.04
2024-03-26T18:59:12.253Z,99441.84
2024-03-26T19:01:40.555Z,99436.94
2024-03-26T19:04:09.366Z,99438.42
2024-03-26T19:06:37.386Z,99438.33
2024-03-26T19:09:08.717Z,99444.98
2024-03-26T19:11:37.118Z,99446.73
2024-03-26T19:14:05.194Z,99445.23
2024-03-26T19:16:33.710Z,99442.09
2024-03-26T19:19:02.909Z,99437.91
2024-03-26T19:21:30.902Z,99437.30
2024-03-26T19:23:59.093Z,99436.80
2024-03-26T19:26:27.392Z,99431.86
2024-03-26T19:28:55.767Z,99437.63
2024-03-26T19:31:23.932Z,99434.73
2024-03-26T19:33:52.048Z,99432.11
2024-03-26T19:36:20.585Z,99431.37
2024-03-26T19:38:48.693Z,99431.30
2024-03-26T19:41:18.013Z,99432.73
2024-03-26T19:43:46.581Z,99433.96
2024-03-26T19:46:14.585Z,99433.64
2024-03-26T19:48:43.662Z,99427.98
2024-03-26T19:51:11.691Z,99431.70
2024-03-26T19:53:40.694Z,99431.88
2024-03-26T19:56:12.330Z,99432.41
2024-03-26T19:58:43.381Z,99432.19
2024-03-26T20:01:11.755Z,99425.55
2024-03-26T20:03:39.826Z,99423.61
2024-03-26T20:06:13.192Z,99422.70
2024-03-26T20:08:44.548Z,99427.88
2024-03-26T20:11:15.099Z,99425.77
2024-03-26T20:13:43.344Z,99419.50
2024-03-26T20:16:14.408Z,99418.39
2024-03-26T20:18:44.140Z,99415.33
2024-03-26T20:21:12.499Z,99412.24
2024-03-26T20:23:41.564Z,99411.16
2024-03-26T20:26:09.937Z,99411.77
2024-03-26T20:28:38.288Z,99414.29
2024-03-26T20:31:12.383Z,99411.57
2024-03-26T20:33:42.121Z,99413.38
2024-03-26T20:36:16.929Z,99406.35
2024-03-26T20:38:45.186Z,99407.08
2024-03-26T20:41:13.133Z,99403.61
2024-03-26T20:43:41.323Z,99397.16
2024-03-26T20:46:10.125Z,99396.09
2024-03-26T20:48:38.251Z,99396.19
2024-03-26T20:51:10.662Z,99398.08
2024-03-26T20:53:38.531Z,99399.13
2024-03-26T20:56:08.589Z,99392.57
2024-03-26T20:58:36.761Z,99392.31
2024-03-26T21:01:04.932Z,99388.08
2024-03-26T21:03:36.002Z,99385.62
2024-03-26T21:06:06.219Z,99384.17
2024-03-26T21:08:35.263Z,99382.74
2024-03-26T21:11:13.235Z,99374.90
2024-03-26T21:13:41.456Z,99373.86
2024-03-26T21:16:12.228Z,99368.58
2024-03-26T21:18:48.648Z,99364.77
2024-03-26T21:21:21.049Z,99365.02
2024-03-26T21:23:49.252Z,99363.39
2024-03-26T21:26:18.757Z,99362.46
2024-03-26T21:28:47.395Z,99358.63
2024-03-26T21:31:15.546Z,99355.70
2024-03-26T21:33:43.913Z,99348.17
2024-03-26T21:36:12.487Z,99344.73
2024-03-26T21:38:40.800Z,99344.59
2024-03-26T21:41:09.077Z,99339.81
2024-03-26T21:43:37.077Z,99339.23
2024-03-26T21:46:05.134Z,99336.82
2024-03-26T21:48:33.316Z,99334.77
2024-03-26T21:51:03.018Z,99332.23
2024-03-26T21:53:31.055Z,99330.71
2024-03-26T21:56:04.047Z,99332.19
2024-03-26T21:58:32.196Z,99329.13
2024-03-26T22:01:09.548Z,99329.89
2024-03-26T22:03:38.170Z,99325.49
2024-03-26T22:06:07.800Z,99326.77
2024-03-26T22:08:35.975Z,99325.68
2024-03-26T22:11:04.190Z,99322.20
2024-03-26T22:13:32.748Z,99314.73
2024-03-26T22:16:01.811Z,99314.00
2024-03-26T22:18:30.234Z,99313.08
2024-03-26T22:21:00.525Z,99309.19
2024-03-26T22:23:30.335Z,99303.95
2024-03-26T22:26:00.481Z,99301.22
2024-03-26T22:28:28.794Z,99301.47
2024-03-26T22:30:57.044Z,99292.54
2024-03-26T22:33:25.272Z,99289.55
2024-03-26T22:35:53.268Z,99288.00
2024-03-26T22:38:21.362Z,99284.73
2024-03-26T22:40:57.559Z,99285.05
2024-03-26T22:43:26.463Z,99282.21
2024-03-26T22:46:06.455Z,99280.85
2024-03-26T22:48:34.467Z,99281.14
2024-03-26T22:51:02.496Z,99275.35
2024-03-26T22:53:30.533Z,99278.14
2024-03-26T22:56:02.541Z,99274.55
2024-03-26T22:58:31.295Z,99272.05
2024-03-26T23:01:03.491Z,99264.98
2024-03-26T23:03:32.095Z,99264.11
2024-03-26T23:06:01.479Z,99262.51
2024-03-26T23:08:29.811Z,99263.12
2024-03-26T23:10:58.185Z,99259.67
2024-03-26T23:13:27.552Z,99258.84
2024-03-26T23:16:00.563Z,99256.74
2024-03-26T23:18:29.187Z,99253.15
2024-03-26T23:20:57.484Z,99251.00
2024-03-26T23:23:25.688Z,99248.86
2024-03-26T23:25:53.895Z,99245.36
2024-03-26T23:28:22.046Z,99238.66
2024-03-26T23:30:50.149Z,99239.64
2024-03-26T23:33:18.508Z,99241.09
2024-03-26T23:35:46.729Z,99242.42
2024-03-26T23:38:15.311Z,99239.43
2024-03-26T23:40:43.321Z,99234.23
2024-03-26T23:43:11.310Z,99237.20
2024-03-26T23:45:39.349Z,99229.15
2024-03-26T23:48:07.579Z,99225.27
2024-03-26T23:50:35.607Z,99224.77
2024-03-26T23:53:04.126Z,99217.57
2024-03-26T23:55:32.906Z,99221.23
2024-03-26T23:58:01.845Z,99219.25
